Terminal Aerodrome Forecast
Issued by NWS Twin Cities, MN

Home | Current Version | Previous Version | Text Only | Print | Product List | Glossary Off
Versions: 1 2 3 4 5 6 7 8 9 10 11 12 13 14 15 16 17 18 19 20 21 22 23 24 25 26

000
FTUS43 KMPX 232000 AAA
TAFMSP
TAF AMD
KMSP 232057Z 2321/2424 17012G18KT P6SM FEW050 BKN250
     FM240000 15009KT P6SM SCT050 BKN120
     FM241000 15012KT P6SM OVC050=

USA.gov is the U.S. government's official web portal to all federal, state and local government web resources and services.